Aviation Digital Data Service (ADDS)

Output produced by TAFs form (0232 UTC 23 January 2017)
found at http://aviationweather.gov/adds/tafs/
 
KDMN 222333Z 2300/2324 27013G23KT P6SM FEW140 SCT250 
     FM230300 29008KT P6SM SCT140 SCT250 
     FM231200 24004KT P6SM SCT250 
     FM231700 25009G15KT P6SM SCT140 SCT250 
     FM232100 25015G25KT P6SM SCT140 SCT250